Time;durP1;ratioP1;P1;durP2;ratioP2;P2;SDS_P1;SDS_P2;PMS_P1;PMS_P2;Temp;Humidity;BMP_temperature;BMP_pressure;BME280_temperature;BME280_humidity;BME280_pressure;Samples;Min_cycle;Max_cycle;Signal;HPM_P1;HPM_P2
2023/10/21 00:00:21;;;;;;;0.82;0.60;;;13.80;99.90;;;;;;4956055;28;20082;-72
2023/10/21 00:02:47;;;;;;;1.42;0.40;;;13.80;99.90;;;;;;4952413;28;20038;-73
2023/10/21 00:05:13;;;;;;;2.05;0.47;;;13.80;99.90;;;;;;4960579;28;20494;-72
2023/10/21 00:07:38;;;;;;;1.58;0.35;;;13.90;99.90;;;;;;4964643;28;20111;-73
2023/10/21 00:10:06;;;;;;;0.30;0.30;;;13.90;99.90;;;;;;4950995;28;20062;-73
2023/10/21 00:12:33;;;;;;;0.57;0.45;;;13.80;99.90;;;;;;4971244;28;20510;-75
2023/10/21 00:14:59;;;;;;;0.60;0.30;;;13.80;99.90;;;;;;4970128;28;20126;-73
2023/10/21 00:17:31;;;;;;;3.42;0.47;;;13.80;99.90;;;;;;4968986;28;20114;-75
2023/10/21 00:19:56;;;;;;;1.65;0.65;;;13.80;99.90;;;;;;4966093;28;20096;-73
2023/10/21 00:22:22;;;;;;;0.60;0.30;;;13.80;99.90;;;;;;4969896;28;20101;-75
2023/10/21 00:24:48;;;;;;;0.57;0.30;;;13.80;99.90;;;;;;4970706;28;20525;-75
2023/10/21 00:27:13;;;;;;;0.45;0.30;;;13.80;99.90;;;;;;4964885;28;20095;-73
2023/10/21 00:29:39;;;;;;;0.38;0.30;;;13.80;99.90;;;;;;4973013;28;20023;-73
2023/10/21 00:32:05;;;;;;;0.35;0.30;;;13.80;99.90;;;;;;4971050;28;20038;-76
2023/10/21 00:34:31;;;;;;;0.63;0.30;;;13.80;99.90;;;;;;4966903;28;20038;-74
2023/10/21 00:36:57;;;;;;;0.77;0.50;;;13.80;99.90;;;;;;4966000;28;20027;-74
2023/10/21 00:39:23;;;;;;;0.70;0.43;;;13.80;99.90;;;;;;4954354;28;20023;-75
2023/10/21 00:41:48;;;;;;;0.73;0.32;;;13.70;99.90;;;;;;4969553;28;20054;-75
2023/10/21 00:44:14;;;;;;;1.27;0.70;;;13.70;99.90;;;;;;4967722;28;20040;-75
2023/10/21 00:46:40;;;;;;;1.02;0.50;;;13.70;99.90;;;;;;4965565;28;20097;-75
2023/10/21 00:49:06;;;;;;;1.00;0.50;;;13.60;99.90;;;;;;4967820;28;20062;-75
2023/10/21 00:51:33;;;;;;;0.65;0.40;;;13.60;99.90;;;;;;4969302;28;20429;-75
2023/10/21 00:54:00;;;;;;;2.58;0.57;;;13.50;99.90;;;;;;4968213;28;20023;-75
2023/10/21 00:56:27;;;;;;;1.02;0.63;;;13.50;99.90;;;;;;4964898;28;20557;-74
2023/10/21 00:58:53;;;;;;;1.80;0.50;;;13.50;99.90;;;;;;4967013;28;20030;-75
2023/10/21 01:01:19;;;;;;;1.73;0.52;;;13.40;99.90;;;;;;4950873;28;20934;-75
2023/10/21 01:03:45;;;;;;;1.25;0.50;;;13.40;99.90;;;;;;4971570;28;20035;-75
2023/10/21 01:06:11;;;;;;;2.85;0.60;;;13.40;99.90;;;;;;4953327;28;20695;-74
2023/10/21 01:08:46;;;;;;;0.80;0.40;;;13.40;99.90;;;;;;4970434;28;20023;-74
2023/10/21 01:11:12;;;;;;;0.47;0.40;;;13.40;99.90;;;;;;4964435;28;20027;-75
2023/10/21 01:13:38;;;;;;;0.80;0.47;;;13.40;99.90;;;;;;4950865;28;20027;-74
2023/10/21 01:16:04;;;;;;;0.95;0.45;;;13.40;99.90;;;;;;4952895;28;20054;-73
2023/10/21 01:18:33;;;;;;;2.13;0.50;;;13.40;99.90;;;;;;4969836;28;20464;-73
2023/10/21 01:21:02;;;;;;;1.10;0.50;;;13.30;99.90;;;;;;4955136;28;20470;-73
2023/10/21 01:23:33;;;;;;;0.90;0.60;;;13.30;99.90;;;;;;4969946;28;20027;-74
2023/10/21 01:26:00;;;;;;;0.93;0.60;;;13.30;99.90;;;;;;4954373;28;20123;-73
2023/10/21 01:28:26;;;;;;;2.47;0.80;;;13.30;99.90;;;;;;4956585;28;20027;-73
2023/10/21 01:30:52;;;;;;;0.90;0.60;;;13.30;99.90;;;;;;4967378;28;20083;-74
2023/10/21 01:33:17;;;;;;;1.17;0.70;;;13.30;99.90;;;;;;4970770;28;20030;-74
2023/10/21 01:35:46;;;;;;;1.17;0.40;;;13.30;99.90;;;;;;4965567;28;20444;-74
2023/10/21 01:38:12;;;;;;;1.08;0.50;;;13.20;99.90;;;;;;4967785;28;20084;-73
2023/10/21 01:40:38;;;;;;;0.82;0.45;;;13.20;99.90;;;;;;4970463;28;20106;-73
2023/10/21 01:43:03;;;;;;;0.63;0.40;;;13.20;99.90;;;;;;4966985;28;20030;-73
2023/10/21 01:45:29;;;;;;;1.08;0.47;;;13.20;99.90;;;;;;4952460;28;20027;-73
2023/10/21 01:47:55;;;;;;;1.17;0.57;;;13.10;99.90;;;;;;4967170;28;20023;-73
2023/10/21 01:50:21;;;;;;;0.52;0.40;;;13.10;99.90;;;;;;4970189;28;20550;-73
2023/10/21 01:52:46;;;;;;;1.13;0.50;;;13.10;99.90;;;;;;4969753;28;20066;-73
2023/10/21 01:55:12;;;;;;;0.38;0.10;;;13.20;99.90;;;;;;4965361;28;20505;-72
2023/10/21 01:57:38;;;;;;;0.50;0.30;;;13.20;99.90;;;;;;4966507;28;20026;-73
2023/10/21 02:00:09;;;;;;;0.88;0.30;;;13.20;99.90;;;;;;4971436;28;20031;-73
2023/10/21 02:02:35;;;;;;;0.40;0.20;;;13.30;99.90;;;;;;4955172;28;20037;-73
2023/10/21 02:05:01;;;;;;;0.93;0.30;;;13.40;99.90;;;;;;4968158;28;20039;-73
2023/10/21 02:07:27;;;;;;;2.90;0.70;;;13.50;99.90;;;;;;4965956;28;20529;-75
2023/10/21 02:09:52;;;;;;;0.13;0.10;;;13.50;99.90;;;;;;4963860;28;20062;-73
2023/10/21 02:12:19;;;;;;;0.88;0.20;;;13.60;99.90;;;;;;4967890;28;20070;-72
2023/10/21 02:14:45;;;;;;;2.83;0.32;;;13.60;99.90;;;;;;4966913;28;20120;-73
2023/10/21 02:17:10;;;;;;;1.48;0.22;;;13.70;99.90;;;;;;4967035;28;20100;-75
2023/10/21 02:19:36;;;;;;;0.20;0.20;;;13.70;99.90;;;;;;4963114;28;20042;-75
2023/10/21 02:22:01;;;;;;;0.77;0.20;;;13.80;99.90;;;;;;4967069;28;20453;-75
2023/10/21 02:24:27;;;;;;;0.20;0.20;;;13.80;99.90;;;;;;4970848;28;20121;-75
2023/10/21 02:26:52;;;;;;;0.52;0.30;;;13.80;99.90;;;;;;4966228;28;20025;-75
2023/10/21 02:29:18;;;;;;;0.38;0.22;;;13.80;99.90;;;;;;4963482;28;20031;-75
2023/10/21 02:31:44;;;;;;;0.30;0.20;;;13.80;99.90;;;;;;4963338;28;20026;-75
2023/10/21 02:34:09;;;;;;;0.80;0.38;;;13.80;99.90;;;;;;4968593;28;20039;-75
2023/10/21 02:36:35;;;;;;;0.47;0.25;;;13.90;99.90;;;;;;4970552;28;20050;-74
2023/10/21 02:39:01;;;;;;;0.50;0.30;;;13.90;99.90;;;;;;4956581;28;20074;-75
2023/10/21 02:41:26;;;;;;;0.40;0.20;;;13.90;99.90;;;;;;4972999;28;20082;-74
2023/10/21 02:43:53;;;;;;;0.98;0.20;;;13.90;99.90;;;;;;4970574;28;20033;-76
2023/10/21 02:46:21;;;;;;;0.30;0.20;;;13.90;99.90;;;;;;4974400;28;20474;-75
2023/10/21 02:48:47;;;;;;;0.10;0.10;;;13.90;99.90;;;;;;4959396;28;20070;-75
2023/10/21 02:51:20;;;;;;;0.68;0.25;;;13.90;99.90;;;;;;4960460;28;20490;-75
2023/10/21 02:53:46;;;;;;;0.45;0.15;;;13.90;99.90;;;;;;4968561;28;20035;-75
2023/10/21 02:56:13;;;;;;;1.08;0.20;;;13.80;99.90;;;;;;4972279;28;20464;-75
2023/10/21 02:58:40;;;;;;;1.05;0.20;;;13.90;99.90;;;;;;4973082;28;20114;-75
2023/10/21 03:01:15;;;;;;;0.73;0.40;;;13.90;99.90;;;;;;4958969;28;20026;-75
2023/10/21 03:03:42;;;;;;;1.45;0.20;;;13.90;99.90;;;;;;4974375;28;20046;-75
2023/10/21 03:06:10;;;;;;;0.35;0.20;;;13.90;99.90;;;;;;4950919;28;20042;-75
2023/10/21 03:08:37;;;;;;;0.35;0.22;;;13.90;99.90;;;;;;4974006;28;20019;-75
2023/10/21 03:11:03;;;;;;;0.30;0.20;;;13.90;99.90;;;;;;4974336;28;20038;-75
2023/10/21 03:13:30;;;;;;;0.93;0.20;;;13.90;99.90;;;;;;4971832;28;20023;-75
2023/10/21 03:15:56;;;;;;;0.60;0.30;;;13.90;99.90;;;;;;4976618;28;20036;-75
2023/10/21 03:18:22;;;;;;;1.33;0.22;;;13.90;99.90;;;;;;4968901;28;20026;-75
2023/10/21 03:20:52;;;;;;;0.35;0.25;;;13.90;99.90;;;;;;4978502;28;20027;-75
2023/10/21 03:23:18;;;;;;;0.17;0.15;;;13.80;99.90;;;;;;4979491;28;20456;-75
2023/10/21 03:25:57;;;;;;;0.20;0.20;;;13.80;99.90;;;;;;4972117;28;20085;-75
2023/10/21 03:28:23;;;;;;;0.50;0.20;;;13.80;99.90;;;;;;4972981;28;20023;-75
2023/10/21 03:30:50;;;;;;;1.27;0.30;;;13.80;99.90;;;;;;4955878;28;20031;-75
2023/10/21 03:33:16;;;;;;;0.35;0.30;;;13.80;99.90;;;;;;4957689;28;20037;-75
2023/10/21 03:35:56;;;;;;;1.17;0.40;;;13.80;99.90;;;;;;4972244;28;20019;-75
2023/10/21 03:38:22;;;;;;;0.82;0.30;;;13.80;99.90;;;;;;4970651;28;20409;-74
2023/10/21 03:40:57;;;;;;;0.57;0.30;;;13.80;99.90;;;;;;4951411;28;20023;-75
2023/10/21 03:43:25;;;;;;;1.85;0.50;;;13.70;99.90;;;;;;4971849;28;20030;-75
2023/10/21 03:45:51;;;;;;;0.22;0.20;;;13.80;99.90;;;;;;4972053;28;20027;-75
2023/10/21 03:48:16;;;;;;;0.98;0.50;;;13.70;99.90;;;;;;4972581;28;20466;-75
2023/10/21 03:50:42;;;;;;;0.65;0.20;;;13.70;99.90;;;;;;4974512;28;20023;-75
2023/10/21 03:53:08;;;;;;;0.50;0.32;;;13.70;99.90;;;;;;4970340;28;20041;-75
2023/10/21 03:55:33;;;;;;;0.73;0.30;;;13.70;99.90;;;;;;4972274;28;20022;-75
2023/10/21 03:57:59;;;;;;;0.55;0.30;;;13.70;99.90;;;;;;4963677;28;20451;-74
2023/10/21 04:00:24;;;;;;;0.93;0.32;;;13.70;99.90;;;;;;4973536;28;20042;-75
2023/10/21 04:02:50;;;;;;;2.63;0.30;;;13.70;99.90;;;;;;4954032;28;20027;-75
2023/10/21 04:05:17;;;;;;;0.40;0.20;;;13.70;99.90;;;;;;4972972;28;20504;-76
2023/10/21 04:07:45;;;;;;;0.40;0.30;;;13.70;99.90;;;;;;4970355;28;20022;-77
2023/10/21 04:10:12;;;;;;;1.17;0.47;;;13.70;99.90;;;;;;4971242;28;20522;-76
2023/10/21 04:12:39;;;;;;;0.25;0.20;;;13.70;99.90;;;;;;4971636;28;20085;-76
2023/10/21 04:15:07;;;;;;;0.88;0.38;;;13.70;99.90;;;;;;4973202;28;20041;-76
2023/10/21 04:17:33;;;;;;;0.30;0.20;;;13.70;99.90;;;;;;4973418;28;20077;-76
2023/10/21 04:19:59;;;;;;;0.57;0.30;;;13.70;99.90;;;;;;4971787;28;20474;-76
2023/10/21 04:22:24;;;;;;;1.13;0.30;;;13.70;99.90;;;;;;4960252;28;20113;-76
2023/10/21 04:24:50;;;;;;;0.55;0.35;;;13.70;99.90;;;;;;4973962;28;20098;-76
2023/10/21 04:27:15;;;;;;;1.60;0.30;;;13.60;99.90;;;;;;4956594;28;20035;-75
2023/10/21 04:29:41;;;;;;;1.55;0.40;;;13.70;99.90;;;;;;4976771;28;20125;-76
2023/10/21 04:32:07;;;;;;;0.25;0.15;;;13.70;99.90;;;;;;4968712;28;20084;-76
2023/10/21 04:34:32;;;;;;;0.35;0.20;;;13.70;99.90;;;;;;4955858;28;20047;-75
2023/10/21 04:36:58;;;;;;;0.55;0.20;;;13.80;99.90;;;;;;4970066;28;20037;-77
2023/10/21 04:39:24;;;;;;;2.38;0.30;;;13.80;99.90;;;;;;4968985;28;20027;-76
2023/10/21 04:41:50;;;;;;;1.30;0.20;;;13.80;99.90;;;;;;4977049;28;20023;-76
2023/10/21 04:44:15;;;;;;;0.20;0.20;;;13.80;99.90;;;;;;4958448;28;20034;-76
2023/10/21 04:46:41;;;;;;;0.20;0.20;;;13.80;99.90;;;;;;4971139;28;20027;-75
2023/10/21 04:49:07;;;;;;;2.00;0.40;;;13.80;99.90;;;;;;4970078;28;20035;-77
2023/10/21 04:51:32;;;;;;;0.50;0.22;;;13.80;99.90;;;;;;4969094;28;20059;-76
2023/10/21 04:53:58;;;;;;;0.38;0.20;;;13.80;99.90;;;;;;4967124;28;20105;-76
2023/10/21 04:56:25;;;;;;;0.60;0.10;;;13.80;99.90;;;;;;4954302;28;20029;-77
2023/10/21 04:58:51;;;;;;;0.30;0.10;;;13.80;99.90;;;;;;4956524;28;20039;-75
2023/10/21 05:01:16;;;;;;;0.13;0.13;;;13.80;99.90;;;;;;4973558;28;20038;-76
2023/10/21 05:03:43;;;;;;;1.10;0.30;;;13.80;99.90;;;;;;4955081;28;20031;-75
2023/10/21 05:06:09;;;;;;;0.20;0.20;;;13.80;99.90;;;;;;4954680;28;20078;-75
2023/10/21 05:08:35;;;;;;;1.60;0.20;;;13.90;99.90;;;;;;4968343;28;20101;-75
2023/10/21 05:11:01;;;;;;;0.82;0.22;;;13.90;99.90;;;;;;4956164;28;20046;-75
2023/10/21 05:13:27;;;;;;;0.10;0.10;;;13.90;99.90;;;;;;4954693;28;20028;-74
2023/10/21 05:15:52;;;;;;;0.68;0.20;;;14.00;99.90;;;;;;4970512;28;20019;-74
2023/10/21 05:18:19;;;;;;;0.10;0.10;;;14.00;99.90;;;;;;4969494;28;20029;-75
2023/10/21 05:20:44;;;;;;;0.40;0.20;;;14.00;99.90;;;;;;4971526;28;20019;-75
2023/10/21 05:23:11;;;;;;;0.63;0.20;;;14.00;99.90;;;;;;4968433;28;20029;-75
2023/10/21 05:25:37;;;;;;;0.20;0.10;;;13.90;99.90;;;;;;4972593;28;20094;-75
2023/10/21 05:28:03;;;;;;;1.00;0.20;;;14.00;99.90;;;;;;4970937;28;20106;-75
2023/10/21 05:30:28;;;;;;;0.90;0.20;;;14.00;99.90;;;;;;4969266;28;20032;-75
2023/10/21 05:32:54;;;;;;;0.35;0.20;;;14.00;99.90;;;;;;4957480;28;20022;-75
2023/10/21 05:35:21;;;;;;;0.10;0.10;;;14.00;99.90;;;;;;4952494;28;20030;-75
2023/10/21 05:37:47;;;;;;;0.10;0.10;;;14.00;99.90;;;;;;4963340;28;20031;-75
2023/10/21 05:40:13;;;;;;;0.13;0.10;;;14.00;99.90;;;;;;4970130;28;20030;-75
2023/10/21 05:42:38;;;;;;;0.45;0.13;;;14.00;99.90;;;;;;4975942;28;20027;-75
2023/10/21 05:45:04;;;;;;;0.65;0.20;;;14.00;99.90;;;;;;4955007;28;20167;-75
2023/10/21 05:47:30;;;;;;;1.27;0.30;;;14.00;99.90;;;;;;4964576;28;20042;-75
2023/10/21 05:49:55;;;;;;;0.20;0.20;;;14.00;99.90;;;;;;4965230;28;20027;-74
2023/10/21 05:52:21;;;;;;;0.20;0.10;;;14.20;99.90;;;;;;4970197;28;20031;-74
2023/10/21 05:54:47;;;;;;;1.45;0.28;;;14.30;99.90;;;;;;4967730;28;20399;-74
2023/10/21 05:57:12;;;;;;;2.45;0.30;;;14.30;99.90;;;;;;4973903;28;20034;-74
2023/10/21 05:59:38;;;;;;;1.05;0.20;;;14.40;99.90;;;;;;4964641;28;20027;-74
2023/10/21 06:02:04;;;;;;;0.98;0.10;;;14.50;99.90;;;;;;4963776;28;20443;-74
2023/10/21 06:04:31;;;;;;;0.15;0.10;;;14.60;99.90;;;;;;4960774;28;20039;-74
2023/10/21 06:06:57;;;;;;;1.65;0.30;;;14.60;99.90;;;;;;4968423;28;20182;-74
2023/10/21 06:09:23;;;;;;;0.50;0.20;;;14.70;99.90;;;;;;4949719;28;20992;-73
2023/10/21 06:11:52;;;;;;;0.45;0.40;;;14.70;99.90;;;;;;4951369;28;20038;-74
2023/10/21 06:14:18;;;;;;;0.75;0.50;;;14.70;99.90;;;;;;4962501;28;20395;-75
2023/10/21 06:16:44;;;;;;;0.70;0.30;;;14.60;99.90;;;;;;4949157;28;20034;-74
2023/10/21 06:19:10;;;;;;;1.25;0.40;;;14.60;99.90;;;;;;4969408;28;20038;-75
2023/10/21 06:21:37;;;;;;;0.43;0.20;;;14.60;99.90;;;;;;4955143;28;20031;-75
2023/10/21 06:24:06;;;;;;;1.05;0.20;;;14.50;99.90;;;;;;4972580;28;20027;-75
2023/10/21 06:26:32;;;;;;;0.17;0.15;;;14.40;99.90;;;;;;4955379;28;20030;-76
2023/10/21 06:28:58;;;;;;;0.28;0.20;;;14.40;99.90;;;;;;4967180;28;20030;-76
2023/10/21 06:31:24;;;;;;;1.85;0.30;;;14.30;99.90;;;;;;4958688;28;20490;-76
2023/10/21 06:33:50;;;;;;;0.52;0.30;;;14.30;99.90;;;;;;4953118;28;20034;-76
2023/10/21 06:36:16;;;;;;;0.30;0.20;;;14.30;99.90;;;;;;4969205;28;20427;-76
2023/10/21 06:38:42;;;;;;;0.20;0.20;;;14.20;99.90;;;;;;4965536;28;20039;-75
2023/10/21 06:41:07;;;;;;;1.00;0.30;;;14.20;99.90;;;;;;4971773;28;20053;-75
2023/10/21 06:43:33;;;;;;;1.85;0.20;;;14.10;99.90;;;;;;4953454;28;20427;-76
2023/10/21 06:45:59;;;;;;;0.10;0.10;;;14.10;99.90;;;;;;4954161;28;20035;-77
2023/10/21 06:48:25;;;;;;;0.90;0.25;;;14.10;99.90;;;;;;4969809;28;20038;-77
2023/10/21 06:50:52;;;;;;;0.20;0.20;;;14.00;99.90;;;;;;4969037;28;20057;-76
2023/10/21 06:53:17;;;;;;;0.45;0.30;;;14.00;99.90;;;;;;4972123;28;20086;-76
2023/10/21 06:55:44;;;;;;;0.50;0.30;;;14.00;99.90;;;;;;4972047;28;20027;-76
2023/10/21 06:58:12;;;;;;;0.20;0.20;;;14.00;99.90;;;;;;4954728;28;20482;-76
2023/10/21 07:00:38;;;;;;;3.50;0.60;;;14.00;99.90;;;;;;4954775;28;20027;-75
2023/10/21 07:03:05;;;;;;;0.60;0.30;;;13.90;99.90;;;;;;4972395;28;20042;-75
2023/10/21 07:05:31;;;;;;;0.52;0.40;;;13.90;99.90;;;;;;4954986;28;20071;-75
2023/10/21 07:07:56;;;;;;;1.00;0.40;;;13.90;99.90;;;;;;4972367;28;20490;-76
2023/10/21 07:10:23;;;;;;;0.20;0.20;;;13.90;99.90;;;;;;4972194;28;20030;-75
2023/10/21 07:12:51;;;;;;;1.38;0.40;;;13.90;99.90;;;;;;4972263;28;20015;-75
2023/10/21 07:15:17;;;;;;;1.23;0.40;;;13.90;99.90;;;;;;4971991;28;20038;-75
2023/10/21 07:17:42;;;;;;;2.35;0.60;;;13.90;99.90;;;;;;4972293;28;20394;-75
2023/10/21 07:20:08;;;;;;;0.70;0.20;;;13.90;99.90;;;;;;4972064;28;20027;-75
2023/10/21 07:22:35;;;;;;;0.20;0.20;;;14.00;99.90;;;;;;4973324;28;20486;-75
2023/10/21 07:25:01;;;;;;;1.50;0.30;;;14.00;99.90;;;;;;4958245;28;20512;-76
2023/10/21 07:27:27;;;;;;;0.85;0.30;;;14.10;99.90;;;;;;4955549;28;20027;-74
2023/10/21 07:29:52;;;;;;;0.25;0.20;;;14.10;99.90;;;;;;4959487;28;20026;-75
2023/10/21 07:32:18;;;;;;;0.25;0.20;;;14.20;99.90;;;;;;4940362;28;20479;-76
2023/10/21 07:34:44;;;;;;;1.05;0.30;;;14.20;99.90;;;;;;4982094;28;20031;-74
2023/10/21 07:37:09;;;;;;;0.88;0.20;;;14.30;99.90;;;;;;4964273;28;20397;-76
2023/10/21 07:39:35;;;;;;;0.20;0.20;;;14.30;99.90;;;;;;4975205;28;20022;-76
2023/10/21 07:42:00;;;;;;;0.90;0.30;;;14.30;99.90;;;;;;4975073;28;20173;-75
2023/10/21 07:44:28;;;;;;;0.57;0.45;;;14.40;99.90;;;;;;4974780;28;20034;-75
2023/10/21 07:46:54;;;;;;;0.80;0.38;;;14.50;99.90;;;;;;4975240;28;20034;-75
2023/10/21 07:49:20;;;;;;;0.47;0.20;;;14.50;99.90;;;;;;4963064;28;20028;-76
2023/10/21 07:51:45;;;;;;;0.55;0.30;;;14.50;99.90;;;;;;4956324;28;20038;-76
2023/10/21 07:54:12;;;;;;;2.28;0.98;;;14.60;99.90;;;;;;4975944;28;20398;-75
2023/10/21 07:56:37;;;;;;;1.02;0.30;;;14.60;99.90;;;;;;4975242;28;20165;-76
2023/10/21 07:59:03;;;;;;;0.63;0.20;;;14.60;99.90;;;;;;4974624;28;20130;-76
2023/10/21 08:01:28;;;;;;;0.52;0.20;;;14.70;99.90;;;;;;4973492;28;20098;-75
2023/10/21 08:03:54;;;;;;;2.83;0.30;;;14.60;99.90;;;;;;4974665;28;20031;-76
2023/10/21 08:06:20;;;;;;;0.80;0.38;;;14.60;99.90;;;;;;4957088;28;20023;-75
2023/10/21 08:08:45;;;;;;;2.35;0.30;;;14.60;99.90;;;;;;4956867;28;20019;-76
2023/10/21 08:11:11;;;;;;;0.55;0.32;;;14.60;99.90;;;;;;4968816;28;20030;-76
2023/10/21 08:13:37;;;;;;;1.60;0.40;;;14.60;99.90;;;;;;4968476;28;20478;-76
2023/10/21 08:16:04;;;;;;;1.52;0.40;;;14.70;99.90;;;;;;4973606;28;20022;-76
2023/10/21 08:18:29;;;;;;;0.65;0.45;;;14.70;99.90;;;;;;4966414;28;20030;-76
2023/10/21 08:20:55;;;;;;;0.60;0.40;;;14.70;99.90;;;;;;4967021;28;20027;-75
2023/10/21 08:23:21;;;;;;;1.15;0.45;;;14.80;99.90;;;;;;4964020;28;20059;-76
2023/10/21 08:25:46;;;;;;;2.45;0.45;;;14.80;99.90;;;;;;4967095;28;20035;-76
2023/10/21 08:28:12;;;;;;;1.15;0.38;;;14.90;99.90;;;;;;4969244;28;20027;-76
2023/10/21 08:30:38;;;;;;;1.17;0.22;;;14.90;99.90;;;;;;4969396;28;20098;-76
2023/10/21 08:33:07;;;;;;;1.38;0.60;;;15.00;99.90;;;;;;4954785;28;20042;-77
2023/10/21 08:35:33;;;;;;;1.67;0.30;;;15.00;99.90;;;;;;4965837;28;20027;-77
2023/10/21 08:37:59;;;;;;;0.52;0.30;;;15.00;99.90;;;;;;4971446;28;20038;-76
2023/10/21 08:40:25;;;;;;;1.30;0.45;;;15.00;99.90;;;;;;4952787;28;20090;-73
2023/10/21 08:42:51;;;;;;;0.65;0.32;;;15.20;99.90;;;;;;4955235;28;20030;-78
2023/10/21 08:45:19;;;;;;;0.90;0.38;;;15.20;99.90;;;;;;4973945;28;20027;-76
2023/10/21 08:47:45;;;;;;;2.47;0.30;;;15.20;99.90;;;;;;4969341;28;20031;-76
2023/10/21 08:50:13;;;;;;;1.05;0.50;;;15.30;99.90;;;;;;4967615;28;20042;-76
2023/10/21 08:52:40;;;;;;;2.17;0.30;;;15.30;99.90;;;;;;4968046;28;20109;-76
2023/10/21 08:55:06;;;;;;;2.28;0.50;;;15.30;99.90;;;;;;4967724;28;20027;-76
2023/10/21 08:57:33;;;;;;;0.65;0.40;;;15.30;99.90;;;;;;4956105;28;20038;-76
2023/10/21 08:59:59;;;;;;;0.70;0.40;;;15.40;99.90;;;;;;4973988;28;20504;-76
2023/10/21 09:02:26;;;;;;;0.65;0.30;;;15.40;99.90;;;;;;4970341;28;20398;-75
2023/10/21 09:04:51;;;;;;;1.25;0.40;;;15.50;99.90;;;;;;4973124;28;20062;-76
2023/10/21 09:07:17;;;;;;;0.77;0.40;;;15.50;99.90;;;;;;4969436;28;20505;-75
2023/10/21 09:09:42;;;;;;;2.58;0.30;;;15.50;99.90;;;;;;4956671;28;20028;-78
2023/10/21 09:12:10;;;;;;;3.50;1.00;;;15.50;99.90;;;;;;4963647;28;20034;-77
2023/10/21 09:14:56;;;;;;;1.02;0.40;;;15.60;99.90;;;;;;4973653;28;20113;-76
2023/10/21 09:17:45;;;;;;;1.02;0.30;;;15.60;99.90;;;;;;4971812;28;20023;-76
2023/10/21 09:20:17;;;;;;;0.85;0.32;;;15.60;99.90;;;;;;4968229;28;20062;-76
2023/10/21 09:22:49;;;;;;;1.80;0.40;;;15.70;99.90;;;;;;4971391;28;20119;-75
2023/10/21 09:25:20;;;;;;;0.85;0.52;;;15.70;99.90;;;;;;4973056;28;20027;-75
2023/10/21 09:27:53;;;;;;;2.45;0.60;;;15.70;99.90;;;;;;4967142;28;20098;-75
2023/10/21 09:30:20;;;;;;;;;;;15.80;99.90;;;;;;4954949;28;20026;-75
2023/10/21 09:32:52;;;;;;;2.30;0.47;;;15.80;99.90;;;;;;4965441;28;19937;-75
2023/10/21 09:35:21;;;;;;;2.65;0.47;;;15.80;99.90;;;;;;4972854;28;20433;-75
2023/10/21 09:37:48;;;;;;;1.60;0.47;;;15.90;99.90;;;;;;4971500;28;20026;-75
2023/10/21 09:40:15;;;;;;;1.73;0.52;;;16.00;99.90;;;;;;4974279;28;20058;-75
2023/10/21 09:42:41;;;;;;;0.70;0.35;;;16.00;99.90;;;;;;4966627;28;20544;-75
2023/10/21 09:45:09;;;;;;;4.65;0.63;;;16.00;99.90;;;;;;4968017;28;20446;-75
2023/10/21 09:47:40;;;;;;;2.00;0.40;;;16.00;99.90;;;;;;4972634;28;20038;-75
2023/10/21 09:50:10;;;;;;;3.55;0.50;;;16.00;99.90;;;;;;4971247;28;20027;-74
2023/10/21 09:52:48;;;;;;;1.55;0.50;;;16.10;99.90;;;;;;4970465;28;20023;-76
2023/10/21 09:55:14;;;;;;;5.13;0.60;;;16.20;99.90;;;;;;4965064;28;20031;-76
2023/10/21 09:57:44;;;;;;;0.52;0.32;;;16.30;99.90;;;;;;4969862;28;20031;-77
2023/10/21 10:00:10;;;;;;;1.80;0.50;;;16.40;99.90;;;;;;4968900;28;20493;-76
2023/10/21 10:02:36;;;;;;;1.27;0.70;;;16.60;99.90;;;;;;4971913;28;20367;-76
2023/10/21 10:05:08;;;;;;;1.35;0.40;;;16.70;99.90;;;;;;4959578;28;20045;-76
2023/10/21 10:07:39;;;;;;;1.90;0.30;;;16.80;99.90;;;;;;4972487;28;20053;-75
2023/10/21 10:10:06;;;;;;;1.88;1.10;;;16.90;99.90;;;;;;4967061;28;20390;-76
2023/10/21 10:12:57;;;;;;;1.40;0.57;;;16.90;99.90;;;;;;4953399;28;20023;-75
2023/10/21 10:15:34;;;;;;;2.92;0.30;;;16.80;99.50;;;;;;4955285;28;20054;-76
2023/10/21 10:18:13;;;;;;;1.05;0.63;;;16.80;99.30;;;;;;4964172;28;20070;-76
2023/10/21 10:20:45;;;;;;;1.42;0.43;;;16.70;99.70;;;;;;4967565;28;20028;-76
2023/10/21 10:23:12;;;;;;;1.73;0.45;;;16.60;99.60;;;;;;4968193;28;20023;-75
2023/10/21 10:25:51;;;;;;;1.23;0.45;;;16.60;99.70;;;;;;4974459;28;20518;-75
2023/10/21 10:28:25;;;;;;;0.90;0.50;;;16.60;99.70;;;;;;4963312;28;20509;-76
2023/10/21 10:30:52;;;;;;;11.52;1.13;;;16.70;99.50;;;;;;4965982;28;20097;-75
2023/10/21 10:33:25;;;;;;;3.03;0.85;;;16.70;99.70;;;;;;4949955;28;20549;-76
2023/10/21 10:35:55;;;;;;;0.85;0.45;;;16.80;99.70;;;;;;4961781;28;20478;-75
2023/10/21 10:38:24;;;;;;;0.65;0.30;;;16.80;99.40;;;;;;4965894;28;20059;-76
2023/10/21 10:41:07;;;;;;;1.45;0.60;;;17.00;99.10;;;;;;4969452;28;20055;-76
2023/10/21 10:43:39;;;;;;;2.03;0.88;;;17.10;99.10;;;;;;4966871;28;20078;-76
2023/10/21 10:46:06;;;;;;;3.45;1.02;;;17.20;98.70;;;;;;4956523;28;21030;-74
2023/10/21 10:48:32;;;;;;;8.73;3.25;;;17.30;98.50;;;;;;4971147;28;20025;-75
2023/10/21 10:51:00;;;;;;;2.40;0.50;;;17.40;98.50;;;;;;4967619;28;20102;-76
2023/10/21 10:53:27;;;;;;;1.23;0.50;;;17.40;98.30;;;;;;4967840;28;20545;-76
2023/10/21 10:55:56;;;;;;;2.92;0.88;;;17.50;98.10;;;;;;4967280;28;20029;-76
2023/10/21 10:58:28;;;;;;;1.00;0.50;;;17.50;97.80;;;;;;4969977;28;20061;-76
2023/10/21 11:00:54;;;;;;;1.65;0.80;;;17.60;97.90;;;;;;4957145;28;20023;-76
2023/10/21 11:03:33;;;;;;;2.30;0.80;;;17.60;97.80;;;;;;4971279;28;20054;-76
2023/10/21 11:05:59;;;;;;;1.83;0.60;;;17.70;97.50;;;;;;4976749;28;20074;-76
2023/10/21 11:08:26;;;;;;;2.80;1.00;;;17.60;97.40;;;;;;4961198;28;20023;-76
2023/10/21 11:11:02;;;;;;;3.13;0.98;;;17.70;97.50;;;;;;4973781;28;20029;-76
2023/10/21 11:13:28;;;;;;;1.65;0.75;;;17.70;97.30;;;;;;4971940;28;20038;-76
2023/10/21 11:15:57;;;;;;;0.70;0.30;;;17.80;97.10;;;;;;4975782;28;20018;-76
2023/10/21 11:18:25;;;;;;;1.95;0.90;;;17.80;96.30;;;;;;4953303;28;20505;-76
2023/10/21 11:20:54;;;;;;;1.02;0.43;;;17.80;96.60;;;;;;4958611;28;20023;-76
2023/10/21 11:23:23;;;;;;;2.85;0.50;;;17.80;96.20;;;;;;4971029;28;20035;-76
2023/10/21 11:25:52;;;;;;;0.60;0.30;;;17.80;96.30;;;;;;4974302;28;20045;-76
2023/10/21 11:28:19;;;;;;;0.68;0.30;;;17.90;96.10;;;;;;4958745;28;20030;-76
2023/10/21 11:30:46;;;;;;;1.33;0.30;;;17.90;96.10;;;;;;4956454;28;20023;-76
2023/10/21 11:33:11;;;;;;;0.85;0.40;;;18.00;96.10;;;;;;4970114;28;20053;-76
2023/10/21 11:35:41;;;;;;;2.90;0.75;;;18.10;96.10;;;;;;4973806;28;20042;-76
2023/10/21 11:38:07;;;;;;;0.90;0.55;;;18.20;95.80;;;;;;4972584;28;20034;-76
2023/10/21 11:40:34;;;;;;;2.08;0.70;;;18.30;95.90;;;;;;4970902;28;20482;-76
2023/10/21 11:43:07;;;;;;;2.13;0.30;;;18.20;95.40;;;;;;4970241;28;20382;-76
2023/10/21 11:45:33;;;;;;;3.03;0.47;;;18.20;95.00;;;;;;4967896;28;20034;-76
2023/10/21 11:48:08;;;;;;;3.47;0.50;;;18.30;94.50;;;;;;4970410;28;20030;-76
2023/10/21 11:50:42;;;;;;;0.70;0.30;;;18.30;94.70;;;;;;4970868;28;20026;-76
2023/10/21 11:53:08;;;;;;;0.80;0.47;;;18.20;93.90;;;;;;4953178;28;20035;-76
2023/10/21 12:17:52;;;;;;;0.65;0.40;;;17.90;94.20;;;;;;4970251;28;20027;-76
2023/10/21 12:19:45;;;;;;;1.50;0.40;;;17.80;94.10;;;;;;4962664;28;20039;-76
2023/10/21 12:36:21;;;;;;;1.05;0.40;;;17.40;94.70;;;;;;4974176;28;20058;-76
2023/10/21 12:38:56;;;;;;;1.70;0.50;;;17.40;95.10;;;;;;4955403;28;20517;-76
2023/10/21 12:41:37;;;;;;;1.17;0.50;;;17.30;95.00;;;;;;4955860;28;20375;-76
2023/10/21 12:44:09;;;;;;;1.17;0.40;;;17.30;95.10;;;;;;4973014;28;20034;-76
2023/10/21 12:46:38;;;;;;;0.80;0.50;;;17.20;95.40;;;;;;4970226;28;20045;-76
2023/10/21 12:49:12;;;;;;;2.90;0.90;;;17.20;95.60;;;;;;4973227;28;20038;-76
2023/10/21 12:51:38;;;;;;;;;;;17.20;95.60;;;;;;4969126;28;20055;-76
2023/10/21 12:54:09;;;;;;;3.08;0.85;;;17.20;95.80;;;;;;4970219;28;19953;-76
2023/10/21 12:56:35;;;;;;;3.25;0.90;;;17.20;96.00;;;;;;4971007;28;20031;-76
2023/10/21 12:59:01;;;;;;;1.73;0.80;;;17.20;96.10;;;;;;4968464;28;20497;-76
2023/10/21 13:01:28;;;;;;;1.25;0.40;;;17.20;96.00;;;;;;4958024;28;20030;-76
2023/10/21 13:03:56;;;;;;;1.42;0.60;;;17.10;96.00;;;;;;4970291;28;20051;-76
2023/10/21 13:06:21;;;;;;;2.58;0.30;;;17.00;96.00;;;;;;4971652;28;20478;-76
2023/10/21 13:08:50;;;;;;;2.15;0.77;;;17.10;96.10;;;;;;4973175;28;20030;-76
2023/10/21 13:11:17;;;;;;;2.08;0.50;;;17.00;96.20;;;;;;4953658;28;20031;-76
2023/10/21 13:13:43;;;;;;;1.27;0.50;;;17.00;96.40;;;;;;4971155;28;20352;-76
2023/10/21 13:16:09;;;;;;;2.08;0.70;;;17.00;96.10;;;;;;4970594;28;20022;-76
2023/10/21 13:18:35;;;;;;;7.82;1.08;;;17.00;96.20;;;;;;4950653;28;20110;-76
2023/10/21 13:21:01;;;;;;;1.20;0.40;;;17.10;96.30;;;;;;4972443;28;20362;-76
2023/10/21 13:23:27;;;;;;;1.42;0.80;;;17.00;96.30;;;;;;4971548;28;20018;-76